Overview Statistics Trail Chart Weather Telemetry Raw packets
 

This is the latest recevied weather packets stored in our database for station/object TB1YZC-13. If no packets are shown the sender has not sent any weather packets the latest 10 day(s).

<< 32 33 34 35 36 37 38 >>
Time Temp. Humidity Pressure Rain* Wind** Luminosity Snow
1788162419 25° C 68% 1019.1 hPa - - - -
1788161816 25° C 68% 1019.1 hPa - - - -
1788161213 25.56° C 67% 1019.1 hPa - - - -
1788160610 24.44° C 70% 1019.1 hPa - - - -
1788160007 26.11° C 67% 1019 hPa - - - -
1788159403 25.56° C 75% 1019 hPa - - - -
1788158801 24.44° C 78% 1019.1 hPa - - - -
1788158198 23.89° C 82% 1019.2 hPa - - - -
1788157595 25° C 81% 1019.3 hPa - - - -
1788156991 23.89° C 86% 1019.5 hPa - - - -
1788156388 23.33° C 87% 1019.6 hPa - - - -
1788155785 23.33° C 85% 1019.5 hPa - - - -
1788155182 24.44° C 82% 1019.4 hPa - - - -
1788154579 23.33° C 84% 1019.4 hPa - - - -
1788153976 23.33° C 85% 1019.5 hPa - - - -
1788153372 23.33° C 85% 1019.5 hPa - - - -
1788152769 22.78° C 88% 1019.5 hPa - - - -
1788152166 22.78° C 87% 1019.5 hPa - - - -
1788151563 22.78° C 88% 1019.4 hPa - - - -
1788150960 21.11° C 92% 1019.4 hPa - - - -
1788150357 20.56° C 94% 1019.4 hPa - - - -
1788149754 20.56° C 95% 1019.4 hPa - - - -
1788149150 20.56° C 97% 1019.4 hPa - - - -
1788148548 20° C 98% 1019.2 hPa - - - -
1788147953 19.44° C 98% 1019.2 hPa - - - -

* Rain since midnight (hover to see other rain measurements)
** Current wind speed in m/s (hover to see current wind gust speed)